sensor_id;sensor_type;location;lat;lon;timestamp;P1;durP1;ratioP1;P2;durP2;ratioP2
76626;SDS011;65519;53.230;10.390;2023-07-29T00:01:59;9.93;;;6.38;;
76626;SDS011;65519;53.230;10.390;2023-07-29T00:04:24;11.45;;;6.55;;
76626;SDS011;65519;53.230;10.390;2023-07-29T00:06:50;8.75;;;6.43;;
76626;SDS011;65519;53.230;10.390;2023-07-29T00:09:15;9.02;;;5.95;;
76626;SDS011;65519;53.230;10.390;2023-07-29T00:11:41;9.15;;;5.63;;
76626;SDS011;65519;53.230;10.390;2023-07-29T00:14:06;10.73;;;6.70;;
76626;SDS011;65519;53.230;10.390;2023-07-29T00:16:32;9.00;;;5.68;;
76626;SDS011;65519;53.230;10.390;2023-07-29T00:18:57;10.93;;;6.50;;
76626;SDS011;65519;53.230;10.390;2023-07-29T00:21:23;9.95;;;6.00;;
76626;SDS011;65519;53.230;10.390;2023-07-29T00:23:49;9.02;;;5.97;;
76626;SDS011;65519;53.230;10.390;2023-07-29T00:26:15;9.52;;;6.25;;
76626;SDS011;65519;53.230;10.390;2023-07-29T00:28:40;9.95;;;6.43;;
76626;SDS011;65519;53.230;10.390;2023-07-29T00:31:06;11.43;;;6.75;;
76626;SDS011;65519;53.230;10.390;2023-07-29T00:33:33;8.80;;;6.50;;
76626;SDS011;65519;53.230;10.390;2023-07-29T00:35:58;8.23;;;5.80;;
76626;SDS011;65519;53.230;10.390;2023-07-29T00:38:27;8.25;;;5.78;;
76626;SDS011;65519;53.230;10.390;2023-07-29T00:40:53;8.65;;;5.80;;
76626;SDS011;65519;53.230;10.390;2023-07-29T00:43:22;7.72;;;6.00;;
76626;SDS011;65519;53.230;10.390;2023-07-29T00:45:47;8.77;;;5.93;;
76626;SDS011;65519;53.230;10.390;2023-07-29T00:48:13;8.32;;;5.93;;
76626;SDS011;65519;53.230;10.390;2023-07-29T00:50:39;9.98;;;5.97;;
76626;SDS011;65519;53.230;10.390;2023-07-29T00:53:05;8.30;;;5.75;;
76626;SDS011;65519;53.230;10.390;2023-07-29T00:55:31;9.43;;;6.18;;
76626;SDS011;65519;53.230;10.390;2023-07-29T00:57:57;10.30;;;6.88;;
76626;SDS011;65519;53.230;10.390;2023-07-29T01:00:22;9.77;;;6.40;;
76626;SDS011;65519;53.230;10.390;2023-07-29T01:02:49;8.93;;;6.18;;
76626;SDS011;65519;53.230;10.390;2023-07-29T01:05:16;10.82;;;6.30;;
76626;SDS011;65519;53.230;10.390;2023-07-29T01:10:26;9.70;;;6.07;;
76626;SDS011;65519;53.230;10.390;2023-07-29T01:13:10;9.15;;;6.13;;
76626;SDS011;65519;53.230;10.390;2023-07-29T01:16:10;11.90;;;6.00;;
76626;SDS011;65519;53.230;10.390;2023-07-29T01:18:42;12.43;;;6.90;;
76626;SDS011;65519;53.230;10.390;2023-07-29T01:21:13;11.68;;;6.03;;
76626;SDS011;65519;53.230;10.390;2023-07-29T01:23:42;11.63;;;6.22;;
76626;SDS011;65519;53.230;10.390;2023-07-29T01:26:07;10.63;;;6.35;;
76626;SDS011;65519;53.230;10.390;2023-07-29T01:28:33;10.27;;;6.15;;
76626;SDS011;65519;53.230;10.390;2023-07-29T01:31:03;9.02;;;6.25;;
76626;SDS011;65519;53.230;10.390;2023-07-29T01:33:47;10.30;;;6.40;;
76626;SDS011;65519;53.230;10.390;2023-07-29T01:36:19;10.65;;;6.53;;
76626;SDS011;65519;53.230;10.390;2023-07-29T01:38:50;11.18;;;7.20;;
76626;SDS011;65519;53.230;10.390;2023-07-29T01:41:17;9.82;;;6.25;;
76626;SDS011;65519;53.230;10.390;2023-07-29T01:43:44;13.57;;;7.05;;
76626;SDS011;65519;53.230;10.390;2023-07-29T01:46:11;13.80;;;7.53;;
76626;SDS011;65519;53.230;10.390;2023-07-29T01:48:37;11.35;;;7.78;;
76626;SDS011;65519;53.230;10.390;2023-07-29T01:51:03;12.15;;;7.72;;
76626;SDS011;65519;53.230;10.390;2023-07-29T01:53:29;13.90;;;7.72;;
76626;SDS011;65519;53.230;10.390;2023-07-29T01:55:55;12.85;;;8.32;;
76626;SDS011;65519;53.230;10.390;2023-07-29T01:58:22;14.05;;;8.35;;
76626;SDS011;65519;53.230;10.390;2023-07-29T02:00:48;14.90;;;9.20;;
76626;SDS011;65519;53.230;10.390;2023-07-29T02:03:13;11.70;;;8.27;;
76626;SDS011;65519;53.230;10.390;2023-07-29T02:05:39;14.13;;;8.40;;
76626;SDS011;65519;53.230;10.390;2023-07-29T02:08:04;15.10;;;8.10;;
76626;SDS011;65519;53.230;10.390;2023-07-29T02:10:30;14.35;;;8.15;;
76626;SDS011;65519;53.230;10.390;2023-07-29T02:12:55;14.00;;;8.13;;
76626;SDS011;65519;53.230;10.390;2023-07-29T02:15:21;13.32;;;7.88;;
76626;SDS011;65519;53.230;10.390;2023-07-29T02:17:46;13.68;;;8.55;;
76626;SDS011;65519;53.230;10.390;2023-07-29T02:20:12;12.65;;;8.20;;
76626;SDS011;65519;53.230;10.390;2023-07-29T02:22:38;12.38;;;7.70;;
76626;SDS011;65519;53.230;10.390;2023-07-29T02:25:04;13.15;;;8.25;;
76626;SDS011;65519;53.230;10.390;2023-07-29T02:27:30;13.52;;;8.68;;
76626;SDS011;65519;53.230;10.390;2023-07-29T02:29:56;15.15;;;7.65;;
76626;SDS011;65519;53.230;10.390;2023-07-29T02:32:21;12.73;;;8.00;;
76626;SDS011;65519;53.230;10.390;2023-07-29T02:34:48;14.10;;;8.45;;
76626;SDS011;65519;53.230;10.390;2023-07-29T02:37:14;13.65;;;8.30;;
76626;SDS011;65519;53.230;10.390;2023-07-29T02:39:40;13.50;;;8.50;;
76626;SDS011;65519;53.230;10.390;2023-07-29T02:42:05;15.63;;;8.52;;
76626;SDS011;65519;53.230;10.390;2023-07-29T02:44:31;13.98;;;8.75;;
76626;SDS011;65519;53.230;10.390;2023-07-29T02:46:57;14.32;;;8.63;;
76626;SDS011;65519;53.230;10.390;2023-07-29T02:49:22;13.00;;;8.65;;
76626;SDS011;65519;53.230;10.390;2023-07-29T02:51:48;14.13;;;8.88;;
76626;SDS011;65519;53.230;10.390;2023-07-29T02:54:14;13.57;;;7.63;;
76626;SDS011;65519;53.230;10.390;2023-07-29T02:56:40;13.98;;;8.57;;
76626;SDS011;65519;53.230;10.390;2023-07-29T02:59:05;13.10;;;8.80;;
76626;SDS011;65519;53.230;10.390;2023-07-29T03:01:31;14.35;;;8.52;;
76626;SDS011;65519;53.230;10.390;2023-07-29T03:03:56;15.63;;;8.68;;
76626;SDS011;65519;53.230;10.390;2023-07-29T03:06:22;14.98;;;9.80;;
76626;SDS011;65519;53.230;10.390;2023-07-29T03:08:48;15.43;;;8.82;;
76626;SDS011;65519;53.230;10.390;2023-07-29T03:11:14;14.07;;;8.90;;
76626;SDS011;65519;53.230;10.390;2023-07-29T03:13:40;14.88;;;9.52;;
76626;SDS011;65519;53.230;10.390;2023-07-29T03:16:07;15.23;;;9.75;;
76626;SDS011;65519;53.230;10.390;2023-07-29T03:18:34;15.30;;;8.75;;
76626;SDS011;65519;53.230;10.390;2023-07-29T03:21:00;13.02;;;8.65;;
76626;SDS011;65519;53.230;10.390;2023-07-29T03:23:27;17.83;;;10.32;;
76626;SDS011;65519;53.230;10.390;2023-07-29T03:25:54;18.10;;;9.40;;
76626;SDS011;65519;53.230;10.390;2023-07-29T03:28:26;19.25;;;10.63;;
76626;SDS011;65519;53.230;10.390;2023-07-29T03:30:53;17.27;;;9.80;;
76626;SDS011;65519;53.230;10.390;2023-07-29T03:33:19;14.25;;;9.25;;
76626;SDS011;65519;53.230;10.390;2023-07-29T03:35:44;16.45;;;9.82;;
76626;SDS011;65519;53.230;10.390;2023-07-29T03:38:10;22.67;;;10.77;;
76626;SDS011;65519;53.230;10.390;2023-07-29T03:40:37;15.27;;;10.15;;
76626;SDS011;65519;53.230;10.390;2023-07-29T03:43:03;17.02;;;9.60;;
76626;SDS011;65519;53.230;10.390;2023-07-29T03:45:29;16.20;;;10.57;;
76626;SDS011;65519;53.230;10.390;2023-07-29T03:47:55;18.23;;;9.60;;
76626;SDS011;65519;53.230;10.390;2023-07-29T03:50:20;16.80;;;10.18;;
76626;SDS011;65519;53.230;10.390;2023-07-29T03:52:46;14.82;;;9.70;;
76626;SDS011;65519;53.230;10.390;2023-07-29T03:55:12;19.10;;;10.55;;
76626;SDS011;65519;53.230;10.390;2023-07-29T03:57:37;16.85;;;9.88;;
76626;SDS011;65519;53.230;10.390;2023-07-29T04:00:03;17.30;;;9.95;;
76626;SDS011;65519;53.230;10.390;2023-07-29T04:02:29;16.00;;;9.25;;
76626;SDS011;65519;53.230;10.390;2023-07-29T04:04:55;15.30;;;9.43;;
76626;SDS011;65519;53.230;10.390;2023-07-29T04:07:20;17.25;;;9.88;;
76626;SDS011;65519;53.230;10.390;2023-07-29T04:09:49;16.85;;;10.25;;
76626;SDS011;65519;53.230;10.390;2023-07-29T04:12:15;17.52;;;10.00;;
76626;SDS011;65519;53.230;10.390;2023-07-29T04:14:41;19.08;;;10.48;;
76626;SDS011;65519;53.230;10.390;2023-07-29T04:17:07;18.50;;;10.82;;
76626;SDS011;65519;53.230;10.390;2023-07-29T04:19:33;16.08;;;9.18;;
76626;SDS011;65519;53.230;10.390;2023-07-29T04:21:58;23.83;;;9.77;;
76626;SDS011;65519;53.230;10.390;2023-07-29T04:24:24;14.80;;;9.65;;
76626;SDS011;65519;53.230;10.390;2023-07-29T04:26:50;18.42;;;10.45;;
76626;SDS011;65519;53.230;10.390;2023-07-29T04:29:15;15.95;;;9.45;;
76626;SDS011;65519;53.230;10.390;2023-07-29T04:31:42;16.38;;;10.07;;
76626;SDS011;65519;53.230;10.390;2023-07-29T04:34:07;16.85;;;10.65;;
76626;SDS011;65519;53.230;10.390;2023-07-29T04:36:33;17.55;;;10.30;;
76626;SDS011;65519;53.230;10.390;2023-07-29T04:38:58;19.08;;;10.57;;
76626;SDS011;65519;53.230;10.390;2023-07-29T04:41:24;19.95;;;11.68;;
76626;SDS011;65519;53.230;10.390;2023-07-29T04:43:50;16.98;;;10.23;;
76626;SDS011;65519;53.230;10.390;2023-07-29T04:46:15;18.13;;;10.10;;
76626;SDS011;65519;53.230;10.390;2023-07-29T04:48:41;16.30;;;9.75;;
76626;SDS011;65519;53.230;10.390;2023-07-29T04:51:06;21.13;;;12.57;;
76626;SDS011;65519;53.230;10.390;2023-07-29T04:53:32;19.95;;;11.35;;
76626;SDS011;65519;53.230;10.390;2023-07-29T04:55:57;24.33;;;12.27;;
76626;SDS011;65519;53.230;10.390;2023-07-29T04:58:23;20.60;;;11.73;;
76626;SDS011;65519;53.230;10.390;2023-07-29T05:00:49;24.27;;;13.10;;
76626;SDS011;65519;53.230;10.390;2023-07-29T05:03:14;23.63;;;13.75;;
76626;SDS011;65519;53.230;10.390;2023-07-29T05:05:40;26.60;;;13.57;;
76626;SDS011;65519;53.230;10.390;2023-07-29T05:08:05;24.40;;;13.50;;
76626;SDS011;65519;53.230;10.390;2023-07-29T05:10:31;22.42;;;13.07;;
76626;SDS011;65519;53.230;10.390;2023-07-29T05:12:56;25.05;;;13.25;;
76626;SDS011;65519;53.230;10.390;2023-07-29T05:15:22;26.77;;;15.95;;
76626;SDS011;65519;53.230;10.390;2023-07-29T05:17:47;21.38;;;12.63;;
76626;SDS011;65519;53.230;10.390;2023-07-29T05:20:13;23.20;;;12.85;;
76626;SDS011;65519;53.230;10.390;2023-07-29T05:22:38;23.45;;;11.98;;
76626;SDS011;65519;53.230;10.390;2023-07-29T05:25:04;20.85;;;12.35;;
76626;SDS011;65519;53.230;10.390;2023-07-29T05:27:30;22.55;;;12.95;;
76626;SDS011;65519;53.230;10.390;2023-07-29T05:29:56;26.17;;;14.23;;
76626;SDS011;65519;53.230;10.390;2023-07-29T05:32:21;21.20;;;12.32;;
76626;SDS011;65519;53.230;10.390;2023-07-29T05:34:47;23.77;;;13.77;;
76626;SDS011;65519;53.230;10.390;2023-07-29T05:37:13;21.83;;;12.00;;
76626;SDS011;65519;53.230;10.390;2023-07-29T05:39:38;19.05;;;11.73;;
76626;SDS011;65519;53.230;10.390;2023-07-29T05:42:04;20.23;;;12.02;;
76626;SDS011;65519;53.230;10.390;2023-07-29T05:44:30;20.88;;;11.88;;
76626;SDS011;65519;53.230;10.390;2023-07-29T05:46:56;20.25;;;11.93;;
76626;SDS011;65519;53.230;10.390;2023-07-29T05:49:22;21.05;;;11.85;;
76626;SDS011;65519;53.230;10.390;2023-07-29T05:51:48;19.48;;;11.35;;
76626;SDS011;65519;53.230;10.390;2023-07-29T05:54:13;20.05;;;12.15;;
76626;SDS011;65519;53.230;10.390;2023-07-29T05:56:39;17.33;;;11.00;;
76626;SDS011;65519;53.230;10.390;2023-07-29T05:59:04;19.73;;;11.30;;
76626;SDS011;65519;53.230;10.390;2023-07-29T06:01:30;22.27;;;11.50;;
76626;SDS011;65519;53.230;10.390;2023-07-29T06:03:55;17.95;;;11.18;;
76626;SDS011;65519;53.230;10.390;2023-07-29T06:06:22;19.60;;;10.52;;
76626;SDS011;65519;53.230;10.390;2023-07-29T06:08:49;18.90;;;11.43;;
76626;SDS011;65519;53.230;10.390;2023-07-29T06:11:15;23.65;;;10.52;;
76626;SDS011;65519;53.230;10.390;2023-07-29T06:13:40;15.93;;;9.38;;
76626;SDS011;65519;53.230;10.390;2023-07-29T06:16:06;18.13;;;10.20;;
76626;SDS011;65519;53.230;10.390;2023-07-29T06:18:31;17.95;;;8.98;;
76626;SDS011;65519;53.230;10.390;2023-07-29T06:20:57;14.45;;;9.18;;
76626;SDS011;65519;53.230;10.390;2023-07-29T06:23:23;16.95;;;9.95;;
76626;SDS011;65519;53.230;10.390;2023-07-29T06:25:48;22.20;;;11.43;;
76626;SDS011;65519;53.230;10.390;2023-07-29T06:28:13;16.75;;;10.05;;
76626;SDS011;65519;53.230;10.390;2023-07-29T06:30:39;17.83;;;10.30;;
76626;SDS011;65519;53.230;10.390;2023-07-29T06:33:05;15.93;;;9.25;;
76626;SDS011;65519;53.230;10.390;2023-07-29T06:35:30;16.02;;;9.55;;
76626;SDS011;65519;53.230;10.390;2023-07-29T06:37:56;16.25;;;9.82;;
76626;SDS011;65519;53.230;10.390;2023-07-29T06:40:21;18.13;;;9.30;;
76626;SDS011;65519;53.230;10.390;2023-07-29T06:42:47;21.05;;;9.50;;
76626;SDS011;65519;53.230;10.390;2023-07-29T06:45:12;15.70;;;9.07;;
76626;SDS011;65519;53.230;10.390;2023-07-29T06:47:38;13.75;;;8.35;;
76626;SDS011;65519;53.230;10.390;2023-07-29T06:50:03;14.75;;;8.55;;
76626;SDS011;65519;53.230;10.390;2023-07-29T06:52:29;12.02;;;7.40;;
76626;SDS011;65519;53.230;10.390;2023-07-29T06:54:54;10.70;;;5.88;;
76626;SDS011;65519;53.230;10.390;2023-07-29T06:57:20;11.52;;;6.95;;
76626;SDS011;65519;53.230;10.390;2023-07-29T06:59:45;14.60;;;7.05;;
76626;SDS011;65519;53.230;10.390;2023-07-29T07:02:11;12.93;;;6.07;;
76626;SDS011;65519;53.230;10.390;2023-07-29T07:04:36;13.07;;;7.63;;
76626;SDS011;65519;53.230;10.390;2023-07-29T07:07:02;24.60;;;11.90;;
76626;SDS011;65519;53.230;10.390;2023-07-29T07:09:27;18.27;;;9.95;;
76626;SDS011;65519;53.230;10.390;2023-07-29T07:11:53;29.30;;;16.15;;
76626;SDS011;65519;53.230;10.390;2023-07-29T07:14:18;29.23;;;17.00;;
76626;SDS011;65519;53.230;10.390;2023-07-29T07:16:44;8.50;;;5.28;;
76626;SDS011;65519;53.230;10.390;2023-07-29T07:19:10;8.32;;;5.15;;
76626;SDS011;65519;53.230;10.390;2023-07-29T07:21:36;7.40;;;4.63;;
76626;SDS011;65519;53.230;10.390;2023-07-29T07:24:01;7.25;;;4.45;;
76626;SDS011;65519;53.230;10.390;2023-07-29T07:26:27;6.93;;;4.53;;
76626;SDS011;65519;53.230;10.390;2023-07-29T07:28:53;6.25;;;4.50;;
76626;SDS011;65519;53.230;10.390;2023-07-29T07:31:18;5.82;;;4.60;;
76626;SDS011;65519;53.230;10.390;2023-07-29T07:33:44;6.03;;;4.20;;
76626;SDS011;65519;53.230;10.390;2023-07-29T07:36:09;7.60;;;4.35;;
76626;SDS011;65519;53.230;10.390;2023-07-29T07:38:35;5.05;;;3.60;;
76626;SDS011;65519;53.230;10.390;2023-07-29T07:41:00;7.78;;;4.68;;
76626;SDS011;65519;53.230;10.390;2023-07-29T07:43:26;8.40;;;4.05;;
76626;SDS011;65519;53.230;10.390;2023-07-29T07:45:56;20.55;;;12.10;;
76626;SDS011;65519;53.230;10.390;2023-07-29T07:48:23;13.43;;;6.60;;
76626;SDS011;65519;53.230;10.390;2023-07-29T07:50:49;26.67;;;14.27;;
76626;SDS011;65519;53.230;10.390;2023-07-29T07:53:14;34.65;;;18.98;;
76626;SDS011;65519;53.230;10.390;2023-07-29T07:55:40;14.30;;;8.27;;
76626;SDS011;65519;53.230;10.390;2023-07-29T07:58:05;12.10;;;7.97;;
76626;SDS011;65519;53.230;10.390;2023-07-29T08:00:31;7.63;;;4.40;;
76626;SDS011;65519;53.230;10.390;2023-07-29T08:02:56;22.45;;;11.70;;
76626;SDS011;65519;53.230;10.390;2023-07-29T08:05:21;16.17;;;9.80;;
76626;SDS011;65519;53.230;10.390;2023-07-29T08:07:47;8.88;;;5.45;;
76626;SDS011;65519;53.230;10.390;2023-07-29T08:10:12;7.57;;;5.60;;
76626;SDS011;65519;53.230;10.390;2023-07-29T08:12:38;40.25;;;23.63;;
76626;SDS011;65519;53.230;10.390;2023-07-29T08:15:04;9.48;;;6.75;;
76626;SDS011;65519;53.230;10.390;2023-07-29T08:17:30;16.77;;;10.65;;
76626;SDS011;65519;53.230;10.390;2023-07-29T08:19:56;10.15;;;6.72;;
76626;SDS011;65519;53.230;10.390;2023-07-29T08:22:22;34.80;;;21.08;;
76626;SDS011;65519;53.230;10.390;2023-07-29T08:24:47;7.10;;;5.68;;
76626;SDS011;65519;53.230;10.390;2023-07-29T08:27:13;33.28;;;20.92;;
76626;SDS011;65519;53.230;10.390;2023-07-29T08:29:38;30.48;;;18.88;;
76626;SDS011;65519;53.230;10.390;2023-07-29T08:32:04;19.67;;;11.60;;
76626;SDS011;65519;53.230;10.390;2023-07-29T08:34:29;17.75;;;9.60;;
76626;SDS011;65519;53.230;10.390;2023-07-29T08:36:55;26.98;;;17.38;;
76626;SDS011;65519;53.230;10.390;2023-07-29T08:39:20;8.68;;;5.82;;
76626;SDS011;65519;53.230;10.390;2023-07-29T08:44:22;9.98;;;7.15;;
76626;SDS011;65519;53.230;10.390;2023-07-29T08:46:49;12.00;;;7.65;;
76626;SDS011;65519;53.230;10.390;2023-07-29T08:49:15;10.80;;;7.53;;
76626;SDS011;65519;53.230;10.390;2023-07-29T08:51:48;11.88;;;7.55;;
76626;SDS011;65519;53.230;10.390;2023-07-29T08:54:15;13.38;;;8.35;;
76626;SDS011;65519;53.230;10.390;2023-07-29T08:56:41;12.48;;;7.63;;
76626;SDS011;65519;53.230;10.390;2023-07-29T08:59:08;12.98;;;8.27;;
76626;SDS011;65519;53.230;10.390;2023-07-29T09:01:34;14.45;;;9.20;;
76626;SDS011;65519;53.230;10.390;2023-07-29T09:03:59;20.85;;;8.77;;
76626;SDS011;65519;53.230;10.390;2023-07-29T09:06:25;15.70;;;8.27;;
76626;SDS011;65519;53.230;10.390;2023-07-29T09:08:53;13.65;;;8.57;;
76626;SDS011;65519;53.230;10.390;2023-07-29T09:11:21;14.90;;;9.02;;
76626;SDS011;65519;53.230;10.390;2023-07-29T09:13:47;13.13;;;8.23;;
76626;SDS011;65519;53.230;10.390;2023-07-29T09:16:13;14.80;;;8.15;;
76626;SDS011;65519;53.230;10.390;2023-07-29T09:18:39;15.55;;;9.18;;
76626;SDS011;65519;53.230;10.390;2023-07-29T09:21:04;26.92;;;10.95;;
76626;SDS011;65519;53.230;10.390;2023-07-29T09:23:42;26.10;;;11.05;;
76626;SDS011;65519;53.230;10.390;2023-07-29T09:26:08;28.50;;;9.23;;
76626;SDS011;65519;53.230;10.390;2023-07-29T09:28:34;19.63;;;8.02;;
76626;SDS011;65519;53.230;10.390;2023-07-29T09:33:27;10.85;;;5.78;;
76626;SDS011;65519;53.230;10.390;2023-07-29T09:35:53;7.70;;;4.75;;
76626;SDS011;65519;53.230;10.390;2023-07-29T09:38:25;9.68;;;5.35;;
76626;SDS011;65519;53.230;10.390;2023-07-29T09:40:54;8.85;;;5.13;;
76626;SDS011;65519;53.230;10.390;2023-07-29T09:43:20;11.13;;;5.47;;
76626;SDS011;65519;53.230;10.390;2023-07-29T09:45:51;9.00;;;5.40;;
76626;SDS011;65519;53.230;10.390;2023-07-29T09:48:19;10.70;;;6.90;;
76626;SDS011;65519;53.230;10.390;2023-07-29T09:50:47;11.85;;;6.97;;
76626;SDS011;65519;53.230;10.390;2023-07-29T09:53:13;16.13;;;8.63;;
76626;SDS011;65519;53.230;10.390;2023-07-29T09:55:39;49.15;;;23.42;;
76626;SDS011;65519;53.230;10.390;2023-07-29T09:58:04;37.15;;;22.83;;
76626;SDS011;65519;53.230;10.390;2023-07-29T10:00:33;31.92;;;18.55;;
76626;SDS011;65519;53.230;10.390;2023-07-29T10:02:59;30.15;;;16.48;;
76626;SDS011;65519;53.230;10.390;2023-07-29T10:05:28;20.70;;;10.98;;
76626;SDS011;65519;53.230;10.390;2023-07-29T10:07:54;19.92;;;11.15;;
76626;SDS011;65519;53.230;10.390;2023-07-29T10:10:21;20.98;;;11.70;;
76626;SDS011;65519;53.230;10.390;2023-07-29T10:12:47;20.15;;;11.05;;
76626;SDS011;65519;53.230;10.390;2023-07-29T10:15:12;48.08;;;25.90;;
76626;SDS011;65519;53.230;10.390;2023-07-29T10:17:39;62.75;;;32.40;;
76626;SDS011;65519;53.230;10.390;2023-07-29T10:20:05;46.53;;;26.75;;
76626;SDS011;65519;53.230;10.390;2023-07-29T10:22:34;30.75;;;16.70;;
76626;SDS011;65519;53.230;10.390;2023-07-29T10:25:04;39.85;;;21.35;;
76626;SDS011;65519;53.230;10.390;2023-07-29T10:27:43;22.10;;;11.82;;
76626;SDS011;65519;53.230;10.390;2023-07-29T10:30:12;22.45;;;11.98;;
76626;SDS011;65519;53.230;10.390;2023-07-29T10:32:38;21.40;;;11.93;;
76626;SDS011;65519;53.230;10.390;2023-07-29T10:35:09;21.38;;;12.75;;
76626;SDS011;65519;53.230;10.390;2023-07-29T10:37:36;23.33;;;12.93;;
76626;SDS011;65519;53.230;10.390;2023-07-29T10:40:05;20.65;;;11.80;;
76626;SDS011;65519;53.230;10.390;2023-07-29T10:42:32;22.75;;;12.98;;
76626;SDS011;65519;53.230;10.390;2023-07-29T10:44:57;27.05;;;13.73;;
76626;SDS011;65519;53.230;10.390;2023-07-29T10:47:24;23.23;;;14.10;;
76626;SDS011;65519;53.230;10.390;2023-07-29T10:49:50;22.73;;;14.07;;
76626;SDS011;65519;53.230;10.390;2023-07-29T10:55:00;22.05;;;12.95;;
76626;SDS011;65519;53.230;10.390;2023-07-29T10:57:33;23.05;;;13.50;;
76626;SDS011;65519;53.230;10.390;2023-07-29T11:00:00;22.42;;;12.65;;
76626;SDS011;65519;53.230;10.390;2023-07-29T11:05:07;48.10;;;28.40;;
76626;SDS011;65519;53.230;10.390;2023-07-29T11:07:43;22.20;;;14.63;;
76626;SDS011;65519;53.230;10.390;2023-07-29T11:10:11;65.53;;;33.25;;
76626;SDS011;65519;53.230;10.390;2023-07-29T11:12:44;29.23;;;16.70;;
76626;SDS011;65519;53.230;10.390;2023-07-29T11:15:13;18.92;;;11.52;;
76626;SDS011;65519;53.230;10.390;2023-07-29T11:20:18;17.55;;;11.30;;
76626;SDS011;65519;53.230;10.390;2023-07-29T11:22:44;30.85;;;17.52;;
76626;SDS011;65519;53.230;10.390;2023-07-29T11:25:11;20.70;;;13.88;;
76626;SDS011;65519;53.230;10.390;2023-07-29T11:27:39;39.05;;;23.83;;
76626;SDS011;65519;53.230;10.390;2023-07-29T11:30:08;30.25;;;17.50;;
76626;SDS011;65519;53.230;10.390;2023-07-29T11:32:36;28.73;;;18.70;;
76626;SDS011;65519;53.230;10.390;2023-07-29T11:35:06;20.73;;;13.00;;
76626;SDS011;65519;53.230;10.390;2023-07-29T11:37:35;34.30;;;21.27;;
76626;SDS011;65519;53.230;10.390;2023-07-29T11:40:01;28.88;;;18.95;;
76626;SDS011;65519;53.230;10.390;2023-07-29T11:42:27;28.80;;;16.98;;
76626;SDS011;65519;53.230;10.390;2023-07-29T11:44:55;30.17;;;19.35;;
76626;SDS011;65519;53.230;10.390;2023-07-29T11:47:22;22.98;;;14.15;;
76626;SDS011;65519;53.230;10.390;2023-07-29T11:49:47;16.00;;;11.02;;
76626;SDS011;65519;53.230;10.390;2023-07-29T11:52:13;15.68;;;10.48;;
76626;SDS011;65519;53.230;10.390;2023-07-29T11:54:39;16.63;;;9.85;;
76626;SDS011;65519;53.230;10.390;2023-07-29T11:57:07;13.25;;;9.55;;
76626;SDS011;65519;53.230;10.390;2023-07-29T11:59:34;27.13;;;16.65;;
76626;SDS011;65519;53.230;10.390;2023-07-29T12:02:01;22.83;;;14.18;;
76626;SDS011;65519;53.230;10.390;2023-07-29T12:04:30;21.45;;;14.45;;
76626;SDS011;65519;53.230;10.390;2023-07-29T12:06:57;24.50;;;15.75;;
76626;SDS011;65519;53.230;10.390;2023-07-29T12:09:23;15.43;;;10.27;;
76626;SDS011;65519;53.230;10.390;2023-07-29T12:11:49;12.65;;;9.40;;
76626;SDS011;65519;53.230;10.390;2023-07-29T12:14:16;11.77;;;8.60;;
76626;SDS011;65519;53.230;10.390;2023-07-29T12:16:42;9.48;;;6.57;;
76626;SDS011;65519;53.230;10.390;2023-07-29T12:19:11;8.98;;;6.97;;
76626;SDS011;65519;53.230;10.390;2023-07-29T12:21:38;11.55;;;6.88;;
76626;SDS011;65519;53.230;10.390;2023-07-29T12:24:03;11.35;;;6.78;;
76626;SDS011;65519;53.230;10.390;2023-07-29T12:26:29;8.93;;;6.80;;
76626;SDS011;65519;53.230;10.390;2023-07-29T12:28:55;21.05;;;13.70;;
76626;SDS011;65519;53.230;10.390;2023-07-29T12:31:21;29.83;;;18.20;;
76626;SDS011;65519;53.230;10.390;2023-07-29T12:33:55;30.27;;;20.80;;
76626;SDS011;65519;53.230;10.390;2023-07-29T12:36:22;19.88;;;15.05;;
76626;SDS011;65519;53.230;10.390;2023-07-29T12:38:47;10.55;;;7.70;;
76626;SDS011;65519;53.230;10.390;2023-07-29T12:41:13;8.15;;;5.88;;
76626;SDS011;65519;53.230;10.390;2023-07-29T12:43:38;8.70;;;6.10;;
76626;SDS011;65519;53.230;10.390;2023-07-29T12:46:04;7.35;;;4.90;;
76626;SDS011;65519;53.230;10.390;2023-07-29T12:48:29;9.38;;;5.03;;
76626;SDS011;65519;53.230;10.390;2023-07-29T12:50:55;6.22;;;4.47;;
76626;SDS011;65519;53.230;10.390;2023-07-29T12:53:20;5.38;;;4.07;;
76626;SDS011;65519;53.230;10.390;2023-07-29T12:55:46;5.65;;;4.38;;
76626;SDS011;65519;53.230;10.390;2023-07-29T12:58:11;6.13;;;4.80;;
76626;SDS011;65519;53.230;10.390;2023-07-29T13:00:36;7.55;;;4.57;;
76626;SDS011;65519;53.230;10.390;2023-07-29T13:03:03;7.03;;;4.30;;
76626;SDS011;65519;53.230;10.390;2023-07-29T13:07:56;9.48;;;5.50;;
76626;SDS011;65519;53.230;10.390;2023-07-29T13:10:22;29.70;;;20.17;;
76626;SDS011;65519;53.230;10.390;2023-07-29T13:12:47;32.67;;;20.38;;
76626;SDS011;65519;53.230;10.390;2023-07-29T13:15:13;6.57;;;4.72;;
76626;SDS011;65519;53.230;10.390;2023-07-29T13:17:39;8.13;;;4.35;;
76626;SDS011;65519;53.230;10.390;2023-07-29T13:20:05;5.72;;;3.50;;
76626;SDS011;65519;53.230;10.390;2023-07-29T13:22:31;4.40;;;3.22;;
76626;SDS011;65519;53.230;10.390;2023-07-29T13:24:56;4.03;;;3.45;;
76626;SDS011;65519;53.230;10.390;2023-07-29T13:27:22;27.60;;;16.52;;
76626;SDS011;65519;53.230;10.390;2023-07-29T13:29:49;21.63;;;13.93;;
76626;SDS011;65519;53.230;10.390;2023-07-29T13:32:14;9.90;;;6.95;;
76626;SDS011;65519;53.230;10.390;2023-07-29T13:34:40;5.03;;;3.97;;
76626;SDS011;65519;53.230;10.390;2023-07-29T13:37:05;5.50;;;3.30;;
76626;SDS011;65519;53.230;10.390;2023-07-29T13:39:31;5.45;;;3.63;;
76626;SDS011;65519;53.230;10.390;2023-07-29T13:41:56;5.30;;;3.28;;
76626;SDS011;65519;53.230;10.390;2023-07-29T13:44:22;5.32;;;3.42;;
76626;SDS011;65519;53.230;10.390;2023-07-29T13:46:47;4.60;;;3.40;;
76626;SDS011;65519;53.230;10.390;2023-07-29T13:49:12;3.92;;;3.20;;
76626;SDS011;65519;53.230;10.390;2023-07-29T13:51:38;8.00;;;3.30;;
76626;SDS011;65519;53.230;10.390;2023-07-29T13:54:03;5.63;;;3.05;;
76626;SDS011;65519;53.230;10.390;2023-07-29T13:56:29;3.63;;;2.90;;
76626;SDS011;65519;53.230;10.390;2023-07-29T13:58:54;4.32;;;2.83;;
76626;SDS011;65519;53.230;10.390;2023-07-29T14:01:20;4.22;;;3.00;;
76626;SDS011;65519;53.230;10.390;2023-07-29T14:03:45;4.05;;;2.80;;
76626;SDS011;65519;53.230;10.390;2023-07-29T14:06:11;4.93;;;2.80;;
76626;SDS011;65519;53.230;10.390;2023-07-29T14:08:36;4.15;;;3.05;;
76626;SDS011;65519;53.230;10.390;2023-07-29T14:11:02;3.90;;;2.65;;
76626;SDS011;65519;53.230;10.390;2023-07-29T14:13:27;4.90;;;2.50;;
76626;SDS011;65519;53.230;10.390;2023-07-29T14:15:53;4.25;;;2.83;;
76626;SDS011;65519;53.230;10.390;2023-07-29T14:18:18;3.80;;;2.30;;
76626;SDS011;65519;53.230;10.390;2023-07-29T14:20:44;2.90;;;2.28;;
76626;SDS011;65519;53.230;10.390;2023-07-29T14:23:10;7.90;;;3.15;;
76626;SDS011;65519;53.230;10.390;2023-07-29T14:25:36;3.05;;;2.25;;
76626;SDS011;65519;53.230;10.390;2023-07-29T14:28:01;4.13;;;2.80;;
76626;SDS011;65519;53.230;10.390;2023-07-29T14:30:27;3.47;;;2.60;;
76626;SDS011;65519;53.230;10.390;2023-07-29T14:32:52;4.95;;;3.00;;
76626;SDS011;65519;53.230;10.390;2023-07-29T14:35:18;3.38;;;2.35;;